This is the latest recevied weather packets stored in our database for station/object WX4FUN-13. If no packets are shown the sender has not sent any weather packets the latest 10 day(s).
| Time | Temp. | Humidity | Pressure | Rain* | Wind** | Luminosity | Snow |
|---|---|---|---|---|---|---|---|
| 1777758943 | 13.89° C | 51% | 1010.4 hPa | 0 mm | - | 70 W/m² | - |
| 1777758340 | 13.89° C | 52% | 1010.4 hPa | 0 mm | - | 85 W/m² | - |
| 1777757740 | 13.89° C | 52% | 1010.4 hPa | 0 mm | - | 97 W/m² | - |
| 1777757140 | 14.44° C | 57% | 1010.4 hPa | 0 mm | - | 110 W/m² | - |
| 1777756542 | 15° C | 61% | 1010.3 hPa | 0 mm | - | 71 W/m² | - |
| 1777755938 | 16.11° C | 63% | 1010.4 hPa | 0 mm | - | 113 W/m² | - |
| 1777755336 | 15.56° C | 65% | 1010.5 hPa | 0 mm | - | 476 W/m² | - |
| 1777754735 | 15° C | 64% | 1010.6 hPa | 0 mm | - | 594 W/m² | - |
| 1777754135 | 15.56° C | 67% | 1010.6 hPa | 0 mm | - | 538 W/m² | - |
| 1777753534 | 15.56° C | 68% | 1010.6 hPa | 0 mm | - | 203 W/m² | - |
| 1777752935 | 14.44° C | 74% | 1010.9 hPa | 0 mm | - | 624 W/m² | - |
| 1777752333 | 13.33° C | 74% | 1011 hPa | 0 mm | - | 171 W/m² | - |
| 1777751734 | 13.33° C | 76% | 1011.1 hPa | 0 mm | - | 199 W/m² | - |
| 1777751134 | 13.33° C | 77% | 1011.3 hPa | 0 mm | - | 190 W/m² | - |
| 1777750536 | 13.33° C | 77% | 1011.4 hPa | 0 mm | - | 256 W/m² | - |
| 1777749934 | 13.89° C | 66% | 1011.4 hPa | 0 mm | - | 254 W/m² | - |
| 1777749335 | 12.78° C | 73% | 1011.6 hPa | 0 mm | - | 362 W/m² | - |
| 1777748719 | 12.22° C | 77% | 1011.7 hPa | 0 mm | - | 165 W/m² | - |
| 1777748120 | 12.22° C | 77% | 1011.7 hPa | 0 mm | - | 233 W/m² | - |
| 1777747520 | 11.67° C | 83% | 1011.7 hPa | 0.25 mm | - | 181 W/m² | - |
| 1777746920 | 11.67° C | 82% | 1011.7 hPa | 0.25 mm | - | 192 W/m² | - |
| 1777746320 | 11.11° C | 86% | 1011.8 hPa | 0.25 mm | - | 324 W/m² | - |
| 1777745707 | 11.11° C | 87% | 1011.8 hPa | 0.25 mm | - | 316 W/m² | - |
| 1777745106 | 11.11° C | 90% | 1011.8 hPa | 0.76 mm | - | 166 W/m² | - |
| 1777744507 | 10.56° C | 91% | 1011.9 hPa | 1.02 mm | - | 158 W/m² | - |
* Rain latest hour (hover to see other rain measurements)
** Current wind speed in m/s (hover to see current wind gust speed)